Time;durP1;ratioP1;P1;durP2;ratioP2;P2;SDS_P1;SDS_P2;PMS_P1;PMS_P2;Temp;Humidity;BMP_temperature;BMP_pressure;BME280_temperature;BME280_humidity;BME280_pressure;Samples;Min_cycle;Max_cycle;Signal;HPM_P1;HPM_P2
2021/08/18 00:00:49;;;;;;;10.80;7.17;;;16.10;99.90;;;;;;4916484;29;24437;-78
2021/08/18 00:03:17;;;;;;;11.15;7.05;;;16.00;99.90;;;;;;4917235;29;25105;-77
2021/08/18 00:05:43;;;;;;;11.02;7.60;;;16.10;99.90;;;;;;4915668;28;24498;-78
2021/08/18 00:08:12;;;;;;;12.13;7.30;;;16.10;99.90;;;;;;4917226;29;24510;-78
2021/08/18 00:10:39;;;;;;;11.05;7.32;;;16.10;99.90;;;;;;4915630;29;24458;-77
2021/08/18 00:13:07;;;;;;;9.07;6.75;;;16.10;99.90;;;;;;4922823;29;24439;-77
2021/08/18 00:15:35;;;;;;;10.77;7.10;;;16.20;99.90;;;;;;4918025;29;24602;-77
2021/08/18 00:18:03;;;;;;;11.05;7.38;;;16.10;99.90;;;;;;4914305;29;24427;-77
2021/08/18 00:20:31;;;;;;;9.65;7.35;;;16.20;99.90;;;;;;4918905;29;25978;-77
2021/08/18 00:23:00;;;;;;;11.65;7.05;;;16.10;99.90;;;;;;4916383;29;24736;-77
2021/08/18 00:25:26;;;;;;;12.33;7.50;;;16.10;99.90;;;;;;4915575;29;24412;-77
2021/08/18 00:27:54;;;;;;;11.27;7.77;;;16.10;99.90;;;;;;4916288;29;24513;-77
2021/08/18 00:30:22;;;;;;;11.27;7.20;;;16.10;99.90;;;;;;4924758;29;24835;-77
2021/08/18 00:32:48;;;;;;;10.05;7.50;;;16.10;99.90;;;;;;4922827;29;24731;-77
2021/08/18 00:35:13;;;;;;;9.77;6.90;;;16.10;99.90;;;;;;4922552;28;24427;-77
2021/08/18 00:37:39;;;;;;;12.50;7.30;;;16.10;99.90;;;;;;4919600;29;24446;-77
2021/08/18 00:40:05;;;;;;;9.88;7.35;;;16.20;99.90;;;;;;4918983;29;24865;-77
2021/08/18 00:42:35;;;;;;;11.30;7.80;;;16.10;99.90;;;;;;4915107;29;24447;-78
2021/08/18 00:45:00;;;;;;;12.68;7.40;;;16.10;99.90;;;;;;4917921;28;24458;-77
2021/08/18 00:47:26;;;;;;;10.90;7.28;;;16.10;99.90;;;;;;4921823;29;24829;-77
2021/08/18 00:49:57;;;;;;;12.70;8.50;;;16.20;99.90;;;;;;4919957;29;24587;-77
2021/08/18 00:52:25;;;;;;;10.88;7.97;;;16.10;99.90;;;;;;4920771;29;24428;-77
2021/08/18 00:54:51;;;;;;;11.45;7.80;;;16.20;99.90;;;;;;4919357;28;24437;-77
2021/08/18 00:57:16;;;;;;;11.68;7.50;;;16.10;99.90;;;;;;4921020;29;24796;-77
2021/08/18 00:59:42;;;;;;;10.20;7.77;;;16.10;99.90;;;;;;4920645;29;24800;-77
2021/08/18 01:02:08;;;;;;;11.55;8.00;;;16.10;99.90;;;;;;4918296;29;24476;-77
2021/08/18 01:04:34;;;;;;;10.67;8.30;;;16.20;99.90;;;;;;4916155;28;24465;-77
2021/08/18 01:07:00;;;;;;;11.65;7.97;;;16.20;99.90;;;;;;4920601;29;24424;-78
2021/08/18 01:09:28;;;;;;;11.05;8.13;;;16.20;99.90;;;;;;4919591;29;24510;-78
2021/08/18 01:12:01;;;;;;;13.35;8.15;;;16.20;99.90;;;;;;4920957;29;24533;-77
2021/08/18 01:14:26;;;;;;;9.73;7.97;;;16.20;99.90;;;;;;4917804;28;24454;-77
2021/08/18 01:16:52;;;;;;;11.40;7.90;;;16.30;99.90;;;;;;4926259;29;24841;-77
2021/08/18 01:19:21;;;;;;;10.77;8.57;;;16.30;99.90;;;;;;4919768;29;24964;-77
2021/08/18 01:21:48;;;;;;;10.23;7.90;;;16.20;99.90;;;;;;4919331;29;24667;-77
2021/08/18 01:24:18;;;;;;;10.35;7.85;;;16.30;99.90;;;;;;4919007;29;24559;-77
2021/08/18 01:26:44;;;;;;;9.30;7.35;;;16.30;99.90;;;;;;4919455;29;24539;-78
2021/08/18 01:29:12;;;;;;;9.20;7.15;;;16.30;99.90;;;;;;4921189;29;24449;-77
2021/08/18 01:31:40;;;;;;;10.50;7.50;;;16.30;99.90;;;;;;4919336;29;24510;-78
2021/08/18 01:34:06;;;;;;;11.88;7.80;;;16.30;99.90;;;;;;4921088;29;24441;-78
2021/08/18 01:36:39;;;;;;;10.77;8.10;;;16.30;99.90;;;;;;4916968;29;25282;-77
2021/08/18 01:39:11;;;;;;;10.45;8.00;;;16.30;99.90;;;;;;4919634;29;24430;-77
2021/08/18 01:41:39;;;;;;;9.60;7.43;;;16.20;99.90;;;;;;4925909;29;24447;-77
2021/08/18 01:44:04;;;;;;;10.15;7.63;;;16.20;99.90;;;;;;4921088;29;24434;-77
2021/08/18 01:46:30;;;;;;;10.13;7.43;;;16.30;99.90;;;;;;4921355;29;24428;-78
2021/08/18 01:48:57;;;;;;;10.43;7.85;;;16.30;99.90;;;;;;4920087;29;24441;-77
2021/08/18 01:51:24;;;;;;;9.90;7.30;;;16.30;99.90;;;;;;4919536;29;24487;-77
2021/08/18 01:53:52;;;;;;;10.18;7.85;;;16.40;99.90;;;;;;4919819;29;25058;-80
2021/08/18 01:56:18;;;;;;;8.35;7.55;;;16.30;99.90;;;;;;4919757;28;24636;-78
2021/08/18 01:58:49;;;;;;;10.02;7.60;;;16.30;99.90;;;;;;4924272;29;24568;-77
2021/08/18 02:01:16;;;;;;;10.23;7.60;;;16.30;99.90;;;;;;4921254;29;24453;-77
2021/08/18 02:03:44;;;;;;;9.32;7.50;;;16.30;99.90;;;;;;4919202;29;24446;-79
2021/08/18 02:06:12;;;;;;;10.60;7.57;;;16.20;99.90;;;;;;4924974;29;24460;-77
2021/08/18 02:08:38;;;;;;;10.30;7.80;;;16.20;99.90;;;;;;4924147;29;24493;-77
2021/08/18 02:11:05;;;;;;;8.88;7.97;;;16.10;99.90;;;;;;4921343;29;25432;-77
2021/08/18 02:13:35;;;;;;;9.27;7.35;;;16.20;99.90;;;;;;4919490;29;24530;-77
2021/08/18 02:16:01;;;;;;;9.70;7.53;;;16.10;99.90;;;;;;4919446;28;24840;-77
2021/08/18 02:18:30;;;;;;;8.75;7.75;;;16.20;99.90;;;;;;4918368;29;24521;-78
2021/08/18 02:20:56;;;;;;;9.77;7.60;;;16.30;99.90;;;;;;4919649;29;24439;-77
2021/08/18 02:23:21;;;;;;;10.48;7.30;;;16.10;99.90;;;;;;4920123;29;24434;-76
2021/08/18 02:25:50;;;;;;;9.37;8.17;;;16.10;99.90;;;;;;4921328;28;24618;-76
2021/08/18 02:28:16;;;;;;;9.73;8.60;;;16.10;99.90;;;;;;4919564;29;24456;-77
2021/08/18 02:30:42;;;;;;;9.88;8.35;;;16.10;99.90;;;;;;4920974;29;24480;-77
2021/08/18 02:33:08;;;;;;;9.10;8.30;;;16.00;99.90;;;;;;4919761;29;24990;-77
2021/08/18 02:35:35;;;;;;;9.20;8.25;;;16.10;99.90;;;;;;4919238;28;25002;-77
2021/08/18 02:38:05;;;;;;;10.07;8.80;;;16.00;99.90;;;;;;4920844;29;24454;-77
2021/08/18 02:40:30;;;;;;;9.65;8.65;;;16.00;99.90;;;;;;4935455;29;24430;-77
2021/08/18 02:42:57;;;;;;;10.43;8.43;;;16.00;99.90;;;;;;4919867;29;24434;-77
2021/08/18 02:45:25;;;;;;;9.05;8.15;;;16.00;99.90;;;;;;4919080;28;24427;-77
2021/08/18 02:47:54;;;;;;;9.20;8.30;;;16.00;99.90;;;;;;4924310;29;24439;-77
2021/08/18 02:50:25;;;;;;;9.70;8.70;;;16.00;99.90;;;;;;4920633;29;24486;-77
2021/08/18 02:52:51;;;;;;;11.25;8.95;;;16.00;99.90;;;;;;4918552;29;24537;-77
2021/08/18 02:55:21;;;;;;;9.77;8.77;;;16.00;99.90;;;;;;4926209;28;24564;-77
2021/08/18 02:57:47;;;;;;;10.40;9.30;;;16.00;99.90;;;;;;4928992;29;24493;-76
2021/08/18 03:00:14;;;;;;;9.93;8.93;;;16.00;99.90;;;;;;4925188;29;24538;-77
2021/08/18 03:02:40;;;;;;;9.80;8.80;;;15.90;99.90;;;;;;4919667;29;24576;-77
2021/08/18 03:05:09;;;;;;;10.70;9.07;;;15.90;99.90;;;;;;4919485;28;24422;-77
2021/08/18 03:07:34;;;;;;;11.32;9.30;;;15.90;99.90;;;;;;4918226;29;24656;-77
2021/08/18 03:10:00;;;;;;;9.77;8.60;;;15.80;99.90;;;;;;4923617;29;25074;-77
2021/08/18 03:12:28;;;;;;;9.52;8.52;;;15.70;99.90;;;;;;4924431;29;24999;-76
2021/08/18 03:14:56;;;;;;;10.15;8.70;;;15.70;99.90;;;;;;4925542;28;24408;-77
2021/08/18 03:17:22;;;;;;;10.65;8.80;;;15.70;99.90;;;;;;4916256;29;24541;-76
2021/08/18 03:19:48;;;;;;;9.48;8.45;;;15.70;99.90;;;;;;4933612;28;24518;-77
2021/08/18 03:22:16;;;;;;;9.70;8.40;;;15.70;99.90;;;;;;4918796;29;24536;-77
2021/08/18 03:24:44;;;;;;;9.80;8.80;;;15.80;99.90;;;;;;4917479;28;25087;-77
2021/08/18 03:27:10;;;;;;;11.27;9.40;;;15.80;99.90;;;;;;4933715;29;24490;-77
2021/08/18 03:29:36;;;;;;;11.45;9.40;;;15.70;99.90;;;;;;4918655;29;24438;-76
2021/08/18 03:32:04;;;;;;;11.27;9.60;;;15.70;99.90;;;;;;4923600;29;24987;-77
2021/08/18 03:34:32;;;;;;;11.70;8.68;;;15.70;99.90;;;;;;4916333;28;24457;-76
2021/08/18 03:37:01;;;;;;;12.18;9.40;;;15.80;99.90;;;;;;4925348;29;24455;-77
2021/08/18 03:39:26;;;;;;;10.32;9.00;;;15.70;99.90;;;;;;4917943;29;24534;-77
2021/08/18 03:41:54;;;;;;;9.70;8.70;;;15.70;99.90;;;;;;4919315;29;24507;-77
2021/08/18 03:44:27;;;;;;;9.80;8.80;;;15.70;99.90;;;;;;4920718;28;24546;-76
2021/08/18 03:46:55;;;;;;;9.63;8.30;;;15.70;99.90;;;;;;4918015;29;25126;-76
2021/08/18 03:49:21;;;;;;;10.52;9.23;;;15.70;99.90;;;;;;4919684;29;24434;-76
2021/08/18 03:51:50;;;;;;;11.40;9.50;;;15.70;99.90;;;;;;4922464;29;25168;-76
2021/08/18 03:54:19;;;;;;;10.20;9.00;;;15.70;99.90;;;;;;4915931;29;24431;-76
2021/08/18 03:56:45;;;;;;;11.85;9.00;;;15.70;99.90;;;;;;4917951;29;24427;-76
2021/08/18 03:59:11;;;;;;;11.23;9.70;;;15.70;99.90;;;;;;4921993;29;24767;-76
2021/08/18 04:01:37;;;;;;;10.70;9.60;;;15.70;99.90;;;;;;4923514;29;24522;-76
2021/08/18 04:04:05;;;;;;;12.80;9.60;;;15.70;99.90;;;;;;4916371;29;24566;-77
2021/08/18 04:06:33;;;;;;;10.65;9.32;;;15.60;99.90;;;;;;4922413;28;24437;-76
2021/08/18 04:09:01;;;;;;;11.27;9.18;;;15.60;99.90;;;;;;4920704;29;24470;-76
2021/08/18 04:11:29;;;;;;;12.02;9.90;;;15.70;99.90;;;;;;4918346;29;25121;-76
2021/08/18 04:13:54;;;;;;;10.87;9.30;;;15.70;99.90;;;;;;4918532;29;24430;-76
2021/08/18 04:16:20;;;;;;;10.18;8.75;;;15.70;99.90;;;;;;4917729;29;24447;-76
2021/08/18 04:18:46;;;;;;;10.33;9.23;;;15.70;99.90;;;;;;4923022;29;25611;-76
2021/08/18 04:21:12;;;;;;;11.20;10.05;;;15.70;99.90;;;;;;4922217;29;24523;-77
2021/08/18 04:23:46;;;;;;;9.52;8.52;;;15.70;99.90;;;;;;4925394;29;24441;-77
2021/08/18 04:26:12;;;;;;;11.25;9.50;;;15.70;99.90;;;;;;4927629;28;24430;-76
2021/08/18 04:28:38;;;;;;;12.05;9.82;;;15.70;99.90;;;;;;4921315;29;24578;-76
2021/08/18 04:31:06;;;;;;;11.35;10.15;;;15.70;99.90;;;;;;4925503;29;24911;-76
2021/08/18 04:33:33;;;;;;;13.43;10.18;;;15.80;99.90;;;;;;4916559;29;25027;-76
2021/08/18 04:35:59;;;;;;;10.60;9.40;;;15.80;99.90;;;;;;4925719;28;24424;-76
2021/08/18 04:38:27;;;;;;;11.50;9.83;;;15.80;99.90;;;;;;4922117;29;24434;-76
2021/08/18 04:40:52;;;;;;;11.68;9.60;;;15.80;99.90;;;;;;4923623;29;24978;-76
2021/08/18 04:43:18;;;;;;;11.60;9.37;;;15.80;99.90;;;;;;4919686;29;24434;-76
2021/08/18 04:45:49;;;;;;;10.73;9.45;;;15.90;99.90;;;;;;4920058;28;24419;-76
2021/08/18 04:48:14;;;;;;;11.32;9.60;;;16.00;99.90;;;;;;4927523;29;24998;-76
2021/08/18 04:50:40;;;;;;;12.05;10.30;;;16.00;99.90;;;;;;4923648;29;24481;-76
2021/08/18 04:53:11;;;;;;;11.50;10.30;;;16.00;99.90;;;;;;4920483;29;25010;-76
2021/08/18 04:55:38;;;;;;;11.18;9.93;;;16.00;99.90;;;;;;4920641;28;24510;-75
2021/08/18 04:58:03;;;;;;;11.80;9.32;;;16.00;99.90;;;;;;4918023;29;24442;-74
2021/08/18 05:00:29;;;;;;;10.87;9.53;;;16.00;99.90;;;;;;4921983;29;25011;-74
2021/08/18 05:02:55;;;;;;;11.48;9.73;;;16.00;99.90;;;;;;4919379;29;24998;-74
2021/08/18 05:05:20;;;;;;;10.80;9.70;;;16.00;99.90;;;;;;4918177;28;24976;-75
2021/08/18 05:07:46;;;;;;;11.27;9.45;;;16.20;99.90;;;;;;4919298;29;24502;-74
2021/08/18 05:10:15;;;;;;;11.33;9.37;;;16.20;99.90;;;;;;4919283;29;24528;-73
2021/08/18 05:12:43;;;;;;;11.57;9.95;;;16.20;99.90;;;;;;4918614;29;24427;-74
2021/08/18 05:15:11;;;;;;;11.00;9.90;;;16.20;99.90;;;;;;4908608;28;24426;-75
2021/08/18 05:17:37;;;;;;;11.63;9.45;;;16.30;99.90;;;;;;4908864;29;24435;-75
2021/08/18 05:20:05;;;;;;;11.03;9.63;;;16.30;99.90;;;;;;4909382;29;24454;-75
2021/08/18 05:22:30;;;;;;;11.98;9.38;;;16.30;99.90;;;;;;4914025;29;24749;-75
2021/08/18 05:24:59;;;;;;;12.00;9.77;;;16.30;99.90;;;;;;4914888;28;25003;-75
2021/08/18 05:27:24;;;;;;;11.82;9.68;;;16.30;99.90;;;;;;4920921;29;24424;-76
2021/08/18 05:29:50;;;;;;;10.40;9.30;;;16.40;99.90;;;;;;4909562;29;25021;-76
2021/08/18 05:32:15;;;;;;;10.27;9.17;;;16.40;99.90;;;;;;4915651;29;24430;-76
2021/08/18 05:34:43;;;;;;;10.85;9.30;;;16.50;99.90;;;;;;4914410;28;24431;-76
2021/08/18 05:37:14;;;;;;;10.65;9.48;;;16.50;99.90;;;;;;4918965;29;24446;-76
2021/08/18 05:39:42;;;;;;;10.60;9.23;;;16.50;99.90;;;;;;4915841;29;20224;-76
2021/08/18 05:42:09;;;;;;;11.50;9.60;;;16.30;99.90;;;;;;4916578;29;25061;-75
2021/08/18 05:44:38;;;;;;;10.80;9.80;;;16.40;99.90;;;;;;4923701;28;24426;-75
2021/08/18 05:47:04;;;;;;;10.35;9.25;;;16.50;99.90;;;;;;4929025;29;24423;-75
2021/08/18 05:49:30;;;;;;;11.00;9.90;;;16.60;99.90;;;;;;4919790;29;25049;-75
2021/08/18 05:51:57;;;;;;;11.47;10.30;;;16.60;99.90;;;;;;4918001;29;24898;-76
2021/08/18 05:54:23;;;;;;;10.18;9.20;;;16.60;99.90;;;;;;4921757;28;24494;-75
2021/08/18 05:56:52;;;;;;;11.47;10.30;;;16.60;99.90;;;;;;4922631;29;24435;-76
2021/08/18 05:59:19;;;;;;;11.07;9.98;;;16.70;99.90;;;;;;4922941;29;24469;-76
2021/08/18 06:01:45;;;;;;;10.98;9.82;;;16.80;99.90;;;;;;4924139;29;24443;-76
2021/08/18 06:04:11;;;;;;;10.70;9.60;;;16.80;99.90;;;;;;4914793;29;24486;-76
2021/08/18 06:06:36;;;;;;;10.80;9.70;;;16.80;99.90;;;;;;4912506;28;24427;-76
2021/08/18 06:09:02;;;;;;;10.38;9.38;;;16.80;99.90;;;;;;4923043;29;25022;-76
2021/08/18 06:11:28;;;;;;;10.35;9.10;;;16.90;99.90;;;;;;4926969;29;24431;-76
2021/08/18 06:13:53;;;;;;;10.30;9.00;;;16.90;99.90;;;;;;4917539;29;24443;-75
2021/08/18 06:16:20;;;;;;;9.32;8.43;;;17.00;99.90;;;;;;4914517;28;24419;-75
2021/08/18 06:18:46;;;;;;;9.43;8.52;;;16.90;99.90;;;;;;4926959;29;24485;-76
2021/08/18 06:21:12;;;;;;;9.70;8.45;;;16.90;99.90;;;;;;4923240;29;24434;-75
2021/08/18 06:23:37;;;;;;;9.27;8.37;;;16.90;99.90;;;;;;4920824;29;24432;-75
2021/08/18 06:26:05;;;;;;;8.93;8.02;;;16.90;99.90;;;;;;4923741;29;24422;-75
2021/08/18 06:28:34;;;;;;;7.90;7.07;;;17.00;99.90;;;;;;4924705;29;24521;-76
2021/08/18 06:31:00;;;;;;;7.90;6.65;;;17.00;99.90;;;;;;4920643;29;24439;-76
2021/08/18 06:33:26;;;;;;;7.10;6.50;;;17.00;99.90;;;;;;4918214;29;24445;-76
2021/08/18 06:35:51;;;;;;;7.20;6.50;;;17.00;99.90;;;;;;4920935;29;24415;-76
2021/08/18 06:38:17;;;;;;;7.05;6.35;;;16.90;99.90;;;;;;4922001;29;24434;-76
2021/08/18 06:40:42;;;;;;;7.80;7.00;;;16.80;99.90;;;;;;4923616;29;25008;-75
2021/08/18 06:43:08;;;;;;;7.30;6.60;;;16.80;99.90;;;;;;4920373;29;24458;-75
2021/08/18 06:45:33;;;;;;;7.03;6.33;;;16.90;99.90;;;;;;4918239;28;24531;-75
2021/08/18 06:47:59;;;;;;;8.80;6.73;;;17.00;99.90;;;;;;4920120;29;24454;-75
2021/08/18 06:50:25;;;;;;;7.47;6.68;;;16.90;99.90;;;;;;4927564;29;24522;-76
2021/08/18 06:52:50;;;;;;;6.80;6.20;;;16.90;99.90;;;;;;4920810;29;24435;-76
2021/08/18 06:55:16;;;;;;;7.22;6.63;;;16.90;99.90;;;;;;4921870;28;24404;-75
2021/08/18 06:57:41;;;;;;;6.77;6.17;;;17.00;99.90;;;;;;4923313;29;24415;-76
2021/08/18 07:00:08;;;;;;;7.13;6.00;;;17.00;99.90;;;;;;4920445;29;25051;-76
2021/08/18 07:02:40;;;;;;;6.80;5.90;;;17.10;99.90;;;;;;4919733;29;24545;-76
2021/08/18 07:05:07;;;;;;;6.20;5.70;;;17.20;99.90;;;;;;4926116;28;25057;-77
2021/08/18 07:07:33;;;;;;;5.53;5.03;;;17.20;99.90;;;;;;4923092;29;24494;-76
2021/08/18 07:09:58;;;;;;;5.60;5.00;;;17.20;99.90;;;;;;4922496;29;24895;-75
2021/08/18 07:12:24;;;;;;;5.10;4.60;;;17.20;99.90;;;;;;4922778;29;24969;-76
2021/08/18 07:14:49;;;;;;;5.37;4.87;;;17.20;99.90;;;;;;4923211;28;25059;-76
2021/08/18 07:17:15;;;;;;;5.20;4.75;;;17.20;99.90;;;;;;4920041;29;24435;-75
2021/08/18 07:19:40;;;;;;;4.80;4.30;;;17.30;99.90;;;;;;4919374;29;24452;-75
2021/08/18 07:22:06;;;;;;;5.50;5.00;;;17.20;99.90;;;;;;4922212;29;24541;-76
2021/08/18 07:24:34;;;;;;;4.97;4.50;;;17.20;99.90;;;;;;4922044;28;24427;-75
2021/08/18 07:27:00;;;;;;;5.00;4.50;;;17.30;99.90;;;;;;4926710;29;24989;-75
2021/08/18 07:29:25;;;;;;;5.03;4.53;;;17.20;99.90;;;;;;4922378;29;24565;-75
2021/08/18 07:31:51;;;;;;;5.70;4.75;;;17.20;99.90;;;;;;4923314;29;24986;-75
2021/08/18 07:34:18;;;;;;;5.60;5.10;;;17.20;99.90;;;;;;4941832;29;24463;-74
2021/08/18 07:36:43;;;;;;;5.15;4.72;;;17.30;99.90;;;;;;4947019;28;24478;-75
2021/08/18 07:39:09;;;;;;;6.60;4.80;;;17.20;99.90;;;;;;4944157;29;24442;-75
2021/08/18 07:41:34;;;;;;;6.80;4.85;;;17.10;99.90;;;;;;4925754;29;24428;-75
2021/08/18 07:44:00;;;;;;;6.53;4.90;;;17.10;99.90;;;;;;4922692;29;24524;-75
2021/08/18 07:46:25;;;;;;;5.30;4.80;;;17.20;99.90;;;;;;4929791;28;24422;-75
2021/08/18 07:48:53;;;;;;;5.60;4.80;;;17.10;99.90;;;;;;4920722;29;24419;-75
2021/08/18 07:51:22;;;;;;;4.93;4.43;;;17.10;99.90;;;;;;4921512;29;24431;-75
2021/08/18 07:53:48;;;;;;;4.88;4.47;;;17.10;99.90;;;;;;4921500;29;24439;-75
2021/08/18 07:56:18;;;;;;;5.27;4.50;;;17.10;99.90;;;;;;4922726;28;24547;-75
2021/08/18 07:58:44;;;;;;;5.23;4.50;;;17.00;99.90;;;;;;4923096;29;25124;-75
2021/08/18 08:01:09;;;;;;;5.53;4.63;;;17.10;99.90;;;;;;4925169;29;24447;-75
2021/08/18 08:03:35;;;;;;;5.47;4.90;;;17.10;99.90;;;;;;4931260;29;24435;-75
2021/08/18 08:06:02;;;;;;;6.00;4.90;;;17.20;99.90;;;;;;4924371;28;24791;-75
2021/08/18 08:08:28;;;;;;;5.10;4.60;;;17.40;99.90;;;;;;4923021;29;24467;-75
2021/08/18 08:10:54;;;;;;;4.73;4.33;;;17.60;99.90;;;;;;4925929;29;24800;-75
2021/08/18 08:13:19;;;;;;;6.03;4.97;;;17.70;99.90;;;;;;4927131;29;24462;-75
2021/08/18 08:15:45;;;;;;;5.00;4.50;;;17.80;99.90;;;;;;4930373;28;24431;-74
2021/08/18 08:18:10;;;;;;;5.55;4.57;;;17.80;99.90;;;;;;4925586;29;20762;-74
2021/08/18 08:20:38;;;;;;;5.50;4.88;;;17.70;99.90;;;;;;4931501;29;24515;-75
2021/08/18 08:23:05;;;;;;;5.10;4.60;;;17.80;99.90;;;;;;4927529;29;24416;-75
2021/08/18 08:25:31;;;;;;;5.80;4.65;;;17.80;99.90;;;;;;4925978;28;24426;-75
2021/08/18 08:27:57;;;;;;;4.40;4.00;;;17.90;99.90;;;;;;4926796;29;24423;-76
2021/08/18 08:30:22;;;;;;;6.57;4.60;;;18.10;99.90;;;;;;4926862;29;24854;-75
2021/08/18 08:32:49;;;;;;;4.97;4.47;;;18.10;99.90;;;;;;4925467;29;24502;-75
2021/08/18 08:35:15;;;;;;;4.90;4.40;;;18.10;99.90;;;;;;4924751;28;24485;-78
2021/08/18 08:37:40;;;;;;;5.70;4.20;;;18.20;99.90;;;;;;4926394;29;24963;-75
2021/08/18 08:40:07;;;;;;;4.53;3.90;;;18.30;99.90;;;;;;4926147;29;24435;-75
2021/08/18 08:42:32;;;;;;;6.20;4.07;;;18.30;99.90;;;;;;4925520;29;24420;-75
2021/08/18 08:45:00;;;;;;;4.78;4.00;;;18.20;99.90;;;;;;4925845;28;24479;-75
2021/08/18 08:47:26;;;;;;;5.03;4.43;;;17.90;99.90;;;;;;4927247;29;24502;-76
2021/08/18 08:49:52;;;;;;;4.30;3.90;;;18.00;99.90;;;;;;4932666;29;24499;-75
2021/08/18 08:52:18;;;;;;;4.50;4.00;;;18.10;99.90;;;;;;4926431;29;24426;-75
2021/08/18 08:54:43;;;;;;;5.50;4.00;;;18.20;99.90;;;;;;4922928;28;24426;-75
2021/08/18 08:57:10;;;;;;;4.90;3.78;;;18.20;99.90;;;;;;4925999;29;24430;-75
2021/08/18 08:59:36;;;;;;;5.30;4.38;;;18.10;99.90;;;;;;4931366;29;24450;-76
2021/08/18 09:02:07;;;;;;;4.77;4.23;;;18.20;99.90;;;;;;4925098;29;24486;-75
2021/08/18 09:04:53;;;;;;;4.07;3.67;;;18.10;99.90;;;;;;4923912;28;24463;-75
2021/08/18 09:07:21;;;;;;;5.30;4.30;;;18.20;99.90;;;;;;4924759;29;24959;-75
2021/08/18 09:09:55;;;;;;;5.05;4.50;;;18.20;99.90;;;;;;4923442;29;24986;-75
2021/08/18 09:12:31;;;;;;;5.20;4.50;;;18.10;99.90;;;;;;4925114;29;24801;-75
2021/08/18 09:14:56;;;;;;;5.47;4.60;;;18.30;99.90;;;;;;4925562;28;24422;-75
2021/08/18 09:17:31;;;;;;;4.50;4.10;;;18.40;99.90;;;;;;4925799;29;24422;-75
2021/08/18 09:20:01;;;;;;;4.85;4.35;;;18.70;99.90;;;;;;4922168;29;24506;-76
2021/08/18 09:22:27;;;;;;;4.60;4.10;;;18.80;99.90;;;;;;4924820;29;24430;-75
2021/08/18 09:25:08;;;;;;;6.03;4.10;;;18.90;99.90;;;;;;4921919;28;25054;-75
2021/08/18 09:27:33;;;;;;;6.03;4.53;;;19.00;99.90;;;;;;4922018;29;24967;-75
2021/08/18 09:30:01;;;;;;;4.45;3.90;;;19.10;99.90;;;;;;4929862;29;24454;-76
2021/08/18 09:32:32;;;;;;;6.80;4.40;;;19.20;99.90;;;;;;4928802;29;24438;-75
2021/08/18 09:35:02;;;;;;;5.25;4.20;;;19.20;99.90;;;;;;4922291;28;24514;-75
2021/08/18 09:37:28;;;;;;;5.10;4.10;;;19.30;99.90;;;;;;4927904;29;24430;-75
2021/08/18 09:39:55;;;;;;;5.43;4.47;;;19.30;99.90;;;;;;4928634;29;24532;-75
2021/08/18 09:42:29;;;;;;;7.05;4.30;;;19.20;99.90;;;;;;4927548;29;24474;-77
2021/08/18 09:45:10;;;;;;;5.80;4.32;;;19.40;99.90;;;;;;4929668;29;24485;-75
2021/08/18 09:47:49;;;;;;;6.85;4.53;;;19.60;99.90;;;;;;4924953;29;24427;-75
2021/08/18 09:50:15;;;;;;;5.95;4.78;;;19.60;99.90;;;;;;4922097;29;24454;-75
2021/08/18 09:52:41;;;;;;;5.47;4.88;;;19.60;99.90;;;;;;4927712;29;24457;-75
2021/08/18 09:55:07;;;;;;;4.90;4.40;;;19.70;99.90;;;;;;4923253;28;24455;-75
2021/08/18 09:57:32;;;;;;;6.53;4.90;;;19.70;99.90;;;;;;4929514;29;24514;-76
2021/08/18 09:59:59;;;;;;;5.60;5.00;;;19.70;99.90;;;;;;4920892;29;24533;-77
2021/08/18 10:02:25;;;;;;;6.85;4.90;;;19.60;99.90;;;;;;4925825;29;24785;-76
2021/08/18 10:04:55;;;;;;;5.00;4.60;;;19.60;99.90;;;;;;4921813;28;24934;-77
2021/08/18 10:07:24;;;;;;;7.82;4.95;;;19.60;99.90;;;;;;4923499;29;24723;-75
2021/08/18 10:09:50;;;;;;;8.00;4.80;;;19.60;99.90;;;;;;4924662;29;24457;-75
2021/08/18 10:12:16;;;;;;;6.47;4.80;;;19.70;99.90;;;;;;4929799;29;24440;-76
2021/08/18 10:14:41;;;;;;;5.78;5.10;;;19.80;99.90;;;;;;4922860;28;24588;-76
2021/08/18 10:17:07;;;;;;;5.90;4.67;;;19.80;99.90;;;;;;4924414;29;24964;-75
2021/08/18 10:19:32;;;;;;;5.68;4.90;;;19.80;99.90;;;;;;4922302;29;24446;-75
2021/08/18 10:22:00;;;;;;;5.50;4.80;;;19.90;99.90;;;;;;4926019;29;25078;-75
2021/08/18 10:24:35;;;;;;;5.25;4.40;;;19.80;99.90;;;;;;4922105;28;24446;-75
2021/08/18 10:27:04;;;;;;;5.90;4.50;;;19.90;99.90;;;;;;4925217;29;24971;-75
2021/08/18 10:29:38;;;;;;;5.20;4.70;;;20.00;99.90;;;;;;4921889;29;24796;-75
2021/08/18 10:32:11;;;;;;;6.18;5.25;;;19.90;99.90;;;;;;4925235;29;24415;-75
2021/08/18 10:34:45;;;;;;;6.75;5.13;;;19.90;99.90;;;;;;4926443;28;24998;-75
2021/08/18 10:37:25;;;;;;;6.40;4.90;;;20.00;99.90;;;;;;4920949;29;24443;-75
2021/08/18 10:39:55;;;;;;;7.32;5.45;;;20.00;99.90;;;;;;4922290;29;24446;-75
2021/08/18 10:42:37;;;;;;;5.20;4.70;;;19.90;99.90;;;;;;4921567;29;24506;-75
2021/08/18 10:45:20;;;;;;;6.18;4.60;;;20.00;99.90;;;;;;4927524;29;24490;-75
2021/08/18 10:47:46;;;;;;;6.22;5.05;;;20.00;99.90;;;;;;4922524;29;24427;-76
2021/08/18 10:50:11;;;;;;;6.68;5.22;;;20.10;99.90;;;;;;4921581;29;25002;-76
2021/08/18 10:52:37;;;;;;;5.80;5.20;;;20.00;99.90;;;;;;4925928;29;24427;-75
2021/08/18 10:55:05;;;;;;;5.90;5.20;;;20.00;99.90;;;;;;4923146;29;24450;-76
2021/08/18 10:57:33;;;;;;;6.00;5.35;;;20.10;99.90;;;;;;4922287;29;25005;-75
2021/08/18 11:00:10;;;;;;;6.47;5.45;;;20.00;99.90;;;;;;4926787;29;24455;-78
2021/08/18 11:02:53;;;;;;;5.87;5.17;;;19.90;99.90;;;;;;4921565;29;24498;-76
2021/08/18 11:05:21;;;;;;;6.30;5.37;;;19.80;99.90;;;;;;4921500;29;24426;-75
2021/08/18 11:08:19;;;;;;;6.87;5.60;;;19.80;99.90;;;;;;4911949;29;24437;-75
2021/08/18 11:10:54;;;;;;;7.50;5.40;;;19.70;99.90;;;;;;4919525;29;24447;-75
2021/08/18 11:13:47;;;;;;;5.65;5.00;;;19.80;99.90;;;;;;4917134;29;24453;-76
2021/08/18 11:16:27;;;;;;;7.87;4.80;;;20.00;99.90;;;;;;4917844;28;24577;-76
2021/08/18 11:19:06;;;;;;;7.45;5.40;;;20.20;99.90;;;;;;4916042;29;24642;-77
2021/08/18 11:21:36;;;;;;;6.90;5.43;;;20.30;99.90;;;;;;4918408;29;24449;-77
2021/08/18 11:24:08;;;;;;;7.18;5.60;;;20.40;99.90;;;;;;4920726;29;24538;-76
2021/08/18 11:26:36;;;;;;;6.53;5.05;;;20.40;99.90;;;;;;4920352;28;25053;-77
2021/08/18 11:29:08;;;;;;;6.55;5.22;;;20.40;99.90;;;;;;4916158;29;24447;-78
2021/08/18 11:31:45;;;;;;;7.60;5.47;;;20.50;99.90;;;;;;4920371;29;24869;-77
2021/08/18 11:34:20;;;;;;;7.60;5.50;;;20.60;99.90;;;;;;4917344;29;24471;-77
2021/08/18 11:36:46;;;;;;;6.70;5.40;;;20.60;99.90;;;;;;4907333;29;24569;-76
2021/08/18 11:39:11;;;;;;;7.73;5.53;;;20.60;99.90;;;;;;4914561;29;24668;-76
2021/08/18 11:41:45;;;;;;;9.05;5.50;;;20.40;99.90;;;;;;4913583;29;24423;-76
2021/08/18 11:44:27;;;;;;;7.30;5.80;;;20.10;99.90;;;;;;4932247;28;24863;-76
2021/08/18 11:47:13;;;;;;;6.38;5.78;;;20.00;99.90;;;;;;4922161;29;24431;-76
2021/08/18 11:49:40;;;;;;;9.48;5.50;;;20.10;99.90;;;;;;4916460;29;24446;-78
2021/08/18 11:52:07;;;;;;;6.85;5.20;;;20.30;99.90;;;;;;4921040;29;24437;-76
2021/08/18 11:54:33;;;;;;;7.10;5.03;;;20.40;99.90;;;;;;4926563;28;24491;-78
2021/08/18 11:57:06;;;;;;;5.53;5.00;;;20.40;99.90;;;;;;4919844;29;24542;-77
2021/08/18 11:59:32;;;;;;;7.28;5.40;;;20.50;99.90;;;;;;4918401;29;24439;-77
2021/08/18 12:01:58;;;;;;;6.70;5.22;;;20.70;99.90;;;;;;4920436;29;24438;-78
2021/08/18 12:04:25;;;;;;;5.80;5.10;;;20.80;99.90;;;;;;4916596;28;24543;-77
2021/08/18 12:07:17;;;;;;;6.55;5.20;;;21.00;99.90;;;;;;4923431;29;21339;-77
2021/08/18 12:09:47;;;;;;;6.35;5.00;;;20.90;99.90;;;;;;4915640;29;20916;-77
2021/08/18 12:12:14;;;;;;;7.05;5.30;;;20.90;99.90;;;;;;4919579;29;20884;-77
2021/08/18 12:14:44;;;;;;;5.40;4.90;;;20.90;99.90;;;;;;4914769;28;24455;-77
2021/08/18 12:17:10;;;;;;;6.33;5.00;;;21.00;99.90;;;;;;4923776;29;20876;-76
2021/08/18 12:19:41;;;;;;;8.32;5.55;;;20.90;99.90;;;;;;4915820;29;24468;-76
2021/08/18 12:22:14;;;;;;;6.78;5.40;;;20.80;99.90;;;;;;4919072;29;24545;-75
2021/08/18 12:24:46;;;;;;;6.13;5.22;;;20.70;99.90;;;;;;4921299;28;24425;-76
2021/08/18 12:27:19;;;;;;;6.63;5.45;;;20.60;99.90;;;;;;4918492;29;25056;-76
2021/08/18 12:29:44;;;;;;;6.25;5.57;;;20.50;99.90;;;;;;4919429;29;24558;-77
2021/08/18 12:32:12;;;;;;;7.10;5.90;;;20.20;99.90;;;;;;4921775;29;24457;-76
2021/08/18 12:34:56;;;;;;;7.35;6.20;;;20.30;99.90;;;;;;4929648;28;24510;-77
2021/08/18 12:37:27;;;;;;;6.95;6.13;;;20.40;99.90;;;;;;4924771;29;25006;-76
2021/08/18 12:39:58;;;;;;;7.95;5.72;;;20.50;99.90;;;;;;4923319;29;24431;-76
2021/08/18 12:42:35;;;;;;;7.50;5.40;;;20.70;99.90;;;;;;4923402;29;24416;-77
2021/08/18 12:45:29;;;;;;;6.93;5.63;;;21.00;99.90;;;;;;4920822;28;24419;-77
2021/08/18 12:47:57;;;;;;;6.45;4.97;;;21.20;99.90;;;;;;4922671;29;24490;-78